Time;durP1;ratioP1;P1;durP2;ratioP2;P2;SDS_P1;SDS_P2;PMS_P1;PMS_P2;Temp;Humidity;BMP_temperature;BMP_pressure;BME280_temperature;BME280_humidity;BME280_pressure;Samples;Min_cycle;Max_cycle;Signal;HPM_P1;HPM_P2
2023/06/04 00:01:06;;;;;;;12.52;4.95;;;12.50;99.90;;;;;;5043233;28;20040;-60
2023/06/04 00:03:32;;;;;;;9.30;4.50;;;12.40;99.90;;;;;;5042997;28;20056;-55
2023/06/04 00:05:58;;;;;;;9.75;5.28;;;12.30;99.90;;;;;;5042288;28;20561;-60
2023/06/04 00:08:23;;;;;;;11.43;4.50;;;12.60;99.90;;;;;;5042108;28;20116;-52
2023/06/04 00:10:49;;;;;;;10.60;5.15;;;12.30;99.90;;;;;;5043032;28;20548;-58
2023/06/04 00:13:15;;;;;;;10.20;4.68;;;12.40;99.90;;;;;;5042104;28;20075;-59
2023/06/04 00:15:41;;;;;;;8.38;4.85;;;12.30;99.90;;;;;;5043110;28;20098;-54
2023/06/04 00:18:07;;;;;;;15.27;5.32;;;12.20;99.90;;;;;;5043169;28;20388;-58
2023/06/04 00:20:32;;;;;;;12.18;5.68;;;12.20;99.90;;;;;;5042629;28;20048;-54
2023/06/04 00:22:58;;;;;;;15.27;5.65;;;12.20;99.90;;;;;;5041754;28;20400;-60
2023/06/04 00:25:24;;;;;;;12.20;5.78;;;12.20;99.90;;;;;;5024539;28;20049;-48
2023/06/04 00:27:49;;;;;;;12.85;5.75;;;12.10;99.90;;;;;;5042274;28;20407;-55
2023/06/04 00:30:15;;;;;;;12.15;5.53;;;13.30;99.90;;;;;;5041854;28;20045;-59
2023/06/04 00:32:41;;;;;;;15.57;5.70;;;12.00;99.90;;;;;;5042812;28;20045;-52
2023/06/04 00:35:07;;;;;;;11.45;5.55;;;12.00;99.90;;;;;;5042682;28;20350;-58
2023/06/04 00:37:32;;;;;;;9.52;5.13;;;12.00;99.90;;;;;;5041160;28;20048;-58
2023/06/04 00:39:59;;;;;;;10.40;5.03;;;12.00;99.90;;;;;;5042331;28;20099;-59
2023/06/04 00:42:24;;;;;;;10.75;5.13;;;12.00;99.90;;;;;;5023977;28;20319;-59
2023/06/04 00:44:50;;;;;;;11.40;4.93;;;12.00;99.90;;;;;;5042607;28;20453;-51
2023/06/04 00:47:18;;;;;;;12.63;5.03;;;12.00;99.90;;;;;;5041577;28;20090;-51
2023/06/04 00:49:43;;;;;;;12.13;5.50;;;12.00;99.90;;;;;;5042142;28;20514;-59
2023/06/04 00:52:10;;;;;;;12.05;5.35;;;11.90;99.90;;;;;;5041381;28;20041;-53
2023/06/04 00:54:37;;;;;;;9.52;4.88;;;11.90;99.90;;;;;;5041602;28;20120;-57
2023/06/04 00:57:03;;;;;;;11.40;4.85;;;11.90;99.90;;;;;;5042237;28;20052;-55
2023/06/04 00:59:33;;;;;;;11.85;5.40;;;11.90;99.90;;;;;;5041835;28;20041;-60
2023/06/04 01:02:10;;;;;;;14.10;4.72;;;12.00;99.90;;;;;;5110850;22;20152;-60
2023/06/04 01:04:47;;;;;;;11.52;5.13;;;11.90;99.90;;;;;;5022075;28;20558;-56
2023/06/04 01:07:15;;;;;;;14.50;5.25;;;11.80;99.90;;;;;;5021009;28;20053;-54
2023/06/04 01:09:41;;;;;;;9.75;5.13;;;11.80;99.90;;;;;;5023305;28;20046;-54
2023/06/04 01:12:07;;;;;;;12.18;5.22;;;11.80;99.90;;;;;;5022109;28;20298;-59
2023/06/04 01:14:33;;;;;;;14.55;5.35;;;11.80;99.90;;;;;;5021273;28;20207;-58
2023/06/04 01:17:04;;;;;;;12.52;5.32;;;11.80;99.90;;;;;;5022272;28;20476;-55
2023/06/04 01:19:51;;;;;;;11.25;4.80;;;11.80;99.90;;;;;;5022086;28;20049;-56
2023/06/04 01:22:35;;;;;;;12.75;5.40;;;11.80;99.90;;;;;;5021656;28;20072;-60
2023/06/04 01:25:24;;;;;;;16.13;5.43;;;11.80;99.90;;;;;;5021582;28;20060;-55
2023/06/04 01:27:55;;;;;;;13.82;5.03;;;11.90;99.90;;;;;;5021909;28;20403;-60
2023/06/04 01:30:25;;;;;;;17.02;5.30;;;11.90;99.90;;;;;;5021693;28;20041;-58
2023/06/04 01:32:52;;;;;;;14.27;5.28;;;11.90;99.90;;;;;;5021234;28;20037;-60
2023/06/04 01:35:17;;;;;;;13.75;6.05;;;11.90;99.90;;;;;;5021821;28;20386;-54
2023/06/04 01:37:44;;;;;;;12.90;5.78;;;11.80;99.90;;;;;;5021684;28;20468;-57
2023/06/04 01:40:10;;;;;;;13.38;5.80;;;11.80;99.90;;;;;;4986988;28;20042;-57
2023/06/04 01:42:36;;;;;;;13.65;5.55;;;11.80;99.90;;;;;;5003970;28;20056;-57
2023/06/04 01:45:01;;;;;;;16.13;6.15;;;11.80;99.90;;;;;;5021658;28;20500;-61
2023/06/04 01:47:27;;;;;;;13.07;5.28;;;11.80;99.90;;;;;;5020806;28;20320;-52
2023/06/04 01:49:52;;;;;;;16.00;5.38;;;11.80;99.90;;;;;;5021630;28;20582;-50
2023/06/04 01:52:20;;;;;;;12.18;5.22;;;11.80;99.90;;;;;;5020786;28;20310;-57
2023/06/04 01:54:48;;;;;;;10.98;4.90;;;11.70;99.90;;;;;;5021853;28;20080;-55
2023/06/04 01:57:14;;;;;;;15.38;6.18;;;11.70;99.90;;;;;;5021980;28;20057;-60
2023/06/04 01:59:41;;;;;;;9.63;4.80;;;11.70;99.90;;;;;;5020861;28;20033;-55
2023/06/04 02:02:07;;;;;;;14.23;5.30;;;11.60;99.90;;;;;;5021229;28;20119;-52
2023/06/04 02:04:36;;;;;;;11.18;5.13;;;11.60;99.90;;;;;;5020823;28;20467;-57
2023/06/04 02:07:02;;;;;;;14.85;5.45;;;11.60;99.90;;;;;;5002729;28;20049;-55
2023/06/04 02:09:27;;;;;;;11.05;4.72;;;11.80;99.90;;;;;;5021584;28;20466;-55
2023/06/04 02:11:53;;;;;;;13.18;4.60;;;11.60;99.90;;;;;;5022054;28;20045;-54
2023/06/04 02:14:19;;;;;;;13.25;4.38;;;11.60;99.90;;;;;;5025576;28;20046;-55
2023/06/04 02:16:49;;;;;;;11.95;4.40;;;11.60;99.90;;;;;;5025358;28;20111;-56
2023/06/04 02:19:15;;;;;;;8.48;4.13;;;11.60;99.90;;;;;;5024581;28;20192;-60
2023/06/04 02:21:40;;;;;;;12.77;4.90;;;11.60;99.90;;;;;;5024977;28;20339;-55
2023/06/04 02:24:06;;;;;;;9.38;4.25;;;11.60;99.90;;;;;;5024700;28;20472;-61
2023/06/04 02:26:32;;;;;;;8.43;4.25;;;11.50;99.90;;;;;;5024398;28;20493;-57
2023/06/04 02:28:57;;;;;;;13.23;4.72;;;11.50;99.90;;;;;;5025074;28;20121;-55
2023/06/04 02:31:23;;;;;;;11.88;4.18;;;11.50;99.90;;;;;;5006666;28;20724;-52
2023/06/04 02:33:49;;;;;;;12.60;4.43;;;11.50;99.90;;;;;;5025026;28;20063;-53
2023/06/04 02:36:17;;;;;;;8.82;4.30;;;11.50;99.90;;;;;;5024150;28;20041;-60
2023/06/04 02:38:42;;;;;;;11.48;4.32;;;11.70;99.90;;;;;;5023378;28;20128;-54
2023/06/04 02:41:08;;;;;;;11.77;4.10;;;11.60;99.90;;;;;;5024391;28;20449;-56
2023/06/04 02:43:34;;;;;;;11.55;4.43;;;11.60;99.90;;;;;;5024371;28;20041;-59
2023/06/04 02:45:59;;;;;;;13.15;4.40;;;11.60;99.90;;;;;;5024756;28;20704;-53
2023/06/04 02:48:25;;;;;;;12.23;5.00;;;11.60;99.90;;;;;;5006700;28;20056;-60
2023/06/04 02:50:50;;;;;;;12.23;4.90;;;11.60;99.90;;;;;;5024641;28;20480;-55
2023/06/04 02:53:16;;;;;;;13.05;5.22;;;11.50;99.90;;;;;;5023781;28;20483;-59
2023/06/04 02:55:42;;;;;;;14.85;4.85;;;11.50;99.90;;;;;;5024082;28;20049;-57
2023/06/04 02:58:08;;;;;;;9.70;5.45;;;11.50;99.90;;;;;;5024921;28;20120;-56
2023/06/04 03:00:34;;;;;;;13.45;5.65;;;11.50;99.90;;;;;;5024046;28;20100;-52
2023/06/04 03:03:03;;;;;;;12.07;5.90;;;11.50;99.90;;;;;;5023886;28;20266;-57
2023/06/04 03:05:32;;;;;;;13.55;5.85;;;11.50;99.90;;;;;;5024021;28;20171;-53
2023/06/04 03:07:59;;;;;;;13.40;5.75;;;11.50;99.90;;;;;;5023503;28;20037;-58
2023/06/04 03:10:25;;;;;;;9.85;5.05;;;11.40;99.90;;;;;;5023832;28;20057;-57
2023/06/04 03:12:50;;;;;;;12.73;5.57;;;11.50;99.90;;;;;;5024164;28;20037;-55
2023/06/04 03:15:16;;;;;;;10.50;5.50;;;11.40;99.90;;;;;;5005336;28;20044;-61
2023/06/04 03:17:42;;;;;;;9.15;5.20;;;11.50;99.90;;;;;;5023302;28;20053;-55
2023/06/04 03:20:08;;;;;;;11.65;5.32;;;11.40;99.90;;;;;;5024032;28;20046;-58
2023/06/04 03:22:35;;;;;;;13.20;5.97;;;11.40;99.90;;;;;;5022234;28;20298;-48
2023/06/04 03:25:01;;;;;;;15.07;6.18;;;11.50;99.90;;;;;;5022680;28;20042;-56
2023/06/04 03:27:27;;;;;;;8.27;5.50;;;11.50;99.90;;;;;;5024228;28;20037;-60
2023/06/04 03:29:53;;;;;;;11.45;5.80;;;11.40;99.90;;;;;;5023687;28;20037;-58
2023/06/04 03:32:18;;;;;;;12.52;6.78;;;11.50;99.90;;;;;;5023408;28;20083;-56
2023/06/04 03:34:44;;;;;;;14.65;6.50;;;12.20;99.90;;;;;;5023707;28;20420;-58
2023/06/04 03:37:10;;;;;;;12.57;6.45;;;11.40;99.90;;;;;;5022990;28;20052;-53
2023/06/04 03:39:36;;;;;;;15.18;7.50;;;11.40;99.90;;;;;;5022930;28;20091;-58
2023/06/04 03:42:01;;;;;;;15.05;6.38;;;11.40;99.90;;;;;;5023207;28;20275;-55
2023/06/04 03:44:27;;;;;;;13.30;7.05;;;11.40;99.90;;;;;;4989438;28;20055;-58
2023/06/04 03:46:52;;;;;;;10.82;7.00;;;11.40;99.90;;;;;;5023348;28;20046;-61
2023/06/04 03:49:19;;;;;;;11.02;7.07;;;11.40;99.90;;;;;;5005116;28;20057;-53
2023/06/04 03:51:45;;;;;;;15.55;8.50;;;11.50;99.90;;;;;;5023047;28;20350;-60
2023/06/04 03:54:11;;;;;;;13.73;8.65;;;11.50;99.90;;;;;;5005157;28;20107;-53
2023/06/04 03:56:37;;;;;;;14.35;9.05;;;11.50;99.90;;;;;;5023215;28;20054;-53
2023/06/04 03:59:02;;;;;;;15.32;9.65;;;11.50;99.90;;;;;;5005392;28;20379;-59
2023/06/04 04:01:28;;;;;;;19.00;10.77;;;11.60;99.90;;;;;;5023385;28;20088;-55
2023/06/04 04:03:54;;;;;;;21.35;11.32;;;11.60;99.90;;;;;;5023228;28;20041;-59
2023/06/04 04:06:20;;;;;;;19.85;11.38;;;11.60;99.90;;;;;;5004598;28;20132;-52
2023/06/04 04:08:46;;;;;;;25.05;10.80;;;11.60;99.90;;;;;;5022466;28;20037;-59
2023/06/04 04:11:16;;;;;;;20.17;11.02;;;11.60;99.90;;;;;;5022855;28;20110;-60
2023/06/04 04:13:42;;;;;;;19.23;11.43;;;11.60;99.90;;;;;;5022241;28;20049;-56
2023/06/04 04:16:07;;;;;;;20.30;11.05;;;11.60;99.90;;;;;;5023108;28;20454;-59
2023/06/04 04:18:34;;;;;;;22.88;10.07;;;11.60;99.90;;;;;;5022507;28;20367;-60
2023/06/04 04:21:00;;;;;;;16.90;10.38;;;11.60;99.90;;;;;;5022446;28;20068;-54
2023/06/04 04:23:27;;;;;;;15.50;10.35;;;11.70;99.90;;;;;;5022137;28;20442;-49
2023/06/04 04:25:53;;;;;;;18.90;10.52;;;11.70;99.90;;;;;;5022510;28;20042;-56
2023/06/04 04:28:19;;;;;;;17.80;10.15;;;11.80;99.90;;;;;;5022808;28;20080;-56
2023/06/04 04:30:46;;;;;;;19.45;9.93;;;11.90;99.90;;;;;;5022268;28;20042;-60
2023/06/04 04:33:15;;;;;;;16.42;10.07;;;11.90;99.90;;;;;;5022470;28;20057;-52
2023/06/04 04:35:42;;;;;;;17.88;9.52;;;12.00;99.90;;;;;;5021771;28;20045;-54
2023/06/04 04:38:08;;;;;;;15.73;9.00;;;12.00;99.90;;;;;;5021887;28;20450;-52
2023/06/04 04:40:33;;;;;;;14.63;8.73;;;11.90;99.90;;;;;;5022110;28;20124;-56
2023/06/04 04:42:59;;;;;;;14.43;8.50;;;11.90;99.90;;;;;;5022922;28;20171;-50
2023/06/04 04:45:25;;;;;;;15.07;8.45;;;11.90;99.90;;;;;;5022174;28;20042;-60
2023/06/04 04:47:51;;;;;;;16.98;8.77;;;11.90;99.90;;;;;;5022127;28;20049;-55
2023/06/04 04:50:16;;;;;;;16.42;8.90;;;12.00;99.90;;;;;;5022197;28;20044;-60
2023/06/04 04:52:42;;;;;;;14.43;8.05;;;12.20;99.90;;;;;;5020760;28;20047;-54
2023/06/04 04:55:09;;;;;;;19.27;8.40;;;12.60;99.90;;;;;;5022256;28;20064;-58
2023/06/04 04:57:34;;;;;;;14.27;7.80;;;12.80;99.90;;;;;;5021969;28;20045;-60
2023/06/04 05:00:00;;;;;;;16.45;7.57;;;13.00;99.90;;;;;;5022210;28;20506;-53
2023/06/04 05:02:26;;;;;;;15.32;7.57;;;13.20;99.90;;;;;;5022361;28;20534;-61
2023/06/04 05:04:51;;;;;;;14.52;7.22;;;13.40;99.90;;;;;;5003982;28;20056;-55
2023/06/04 05:07:17;;;;;;;13.77;6.65;;;13.60;99.90;;;;;;5021675;28;20049;-61
2023/06/04 05:09:42;;;;;;;11.13;5.82;;;13.90;99.90;;;;;;5021123;28;20060;-53
2023/06/04 05:12:08;;;;;;;12.10;6.15;;;13.70;99.90;;;;;;5022006;28;20052;-61
2023/06/04 05:14:35;;;;;;;12.50;6.80;;;13.80;99.90;;;;;;5003997;28;20073;-56
2023/06/04 05:17:03;;;;;;;15.13;6.50;;;13.90;99.90;;;;;;5021698;28;20049;-49
2023/06/04 05:19:28;;;;;;;12.15;5.32;;;14.00;99.90;;;;;;5004684;28;20046;-61
2023/06/04 05:21:54;;;;;;;11.40;5.70;;;14.00;99.90;;;;;;5020837;28;20087;-59
2023/06/04 05:24:20;;;;;;;12.48;5.55;;;14.20;99.90;;;;;;5021487;28;20033;-50
2023/06/04 05:26:48;;;;;;;11.32;5.70;;;14.30;99.90;;;;;;5003942;28;20535;-50
2023/06/04 05:29:13;;;;;;;13.00;5.40;;;14.50;99.90;;;;;;5021326;28;20041;-56
2023/06/04 05:31:39;;;;;;;14.43;5.50;;;14.70;99.90;;;;;;5021534;28;20037;-61
2023/06/04 05:34:05;;;;;;;14.57;5.78;;;14.90;99.90;;;;;;5020677;28;20349;-59
2023/06/04 05:36:31;;;;;;;11.60;5.03;;;15.10;99.90;;;;;;5020938;28;20369;-55
2023/06/04 05:38:57;;;;;;;11.18;4.50;;;15.40;99.90;;;;;;5003995;28;20459;-59
2023/06/04 05:41:27;;;;;;;12.20;5.05;;;15.60;99.90;;;;;;5020588;28;20500;-56
2023/06/04 05:43:53;;;;;;;10.68;4.38;;;15.90;99.90;;;;;;5021515;28;20099;-55
2023/06/04 05:46:18;;;;;;;10.80;4.38;;;16.10;99.90;;;;;;5003977;28;20045;-50
2023/06/04 05:48:44;;;;;;;11.07;4.32;;;16.40;99.90;;;;;;5024652;28;20617;-58
2023/06/04 05:51:10;;;;;;;12.82;4.28;;;16.60;99.90;;;;;;5025758;28;20531;-62
2023/06/04 05:53:36;;;;;;;12.05;3.92;;;16.70;99.90;;;;;;5024679;28;20047;-60
2023/06/04 05:56:01;;;;;;;11.38;3.60;;;16.60;99.90;;;;;;5025829;28;20085;-56
2023/06/04 05:58:27;;;;;;;12.20;3.88;;;16.30;99.90;;;;;;5006990;28;20073;-61
2023/06/04 06:00:53;;;;;;;9.45;3.25;;;16.00;99.90;;;;;;5025229;28;20518;-56
2023/06/04 06:03:19;;;;;;;11.25;3.63;;;15.70;99.90;;;;;;5025166;28;20054;-55
2023/06/04 06:05:44;;;;;;;11.18;3.40;;;15.60;99.90;;;;;;5024379;28;20034;-61
2023/06/04 06:08:10;;;;;;;12.45;3.80;;;15.60;99.90;;;;;;5024830;28;20467;-50
2023/06/04 06:10:36;;;;;;;9.98;4.15;;;15.50;99.90;;;;;;5025051;28;20567;-61
2023/06/04 06:13:02;;;;;;;11.00;4.18;;;15.80;99.90;;;;;;5025075;28;20451;-49
2023/06/04 06:15:28;;;;;;;11.07;3.78;;;15.40;99.90;;;;;;5025349;28;20988;-59
2023/06/04 06:17:54;;;;;;;9.90;4.15;;;15.20;99.90;;;;;;5024622;28;20124;-56
2023/06/04 06:20:20;;;;;;;12.15;4.15;;;15.20;99.90;;;;;;5025211;28;20073;-57
2023/06/04 06:22:46;;;;;;;11.32;3.53;;;15.40;99.90;;;;;;5023968;28;20523;-59
2023/06/04 06:25:16;;;;;;;14.18;3.72;;;15.70;99.90;;;;;;5024990;28;20499;-55
2023/06/04 06:27:42;;;;;;;14.18;3.50;;;15.80;99.90;;;;;;5025303;28;20041;-58
2023/06/04 06:30:09;;;;;;;10.75;3.13;;;16.30;99.90;;;;;;5024049;28;20045;-60
2023/06/04 06:32:35;;;;;;;11.75;3.17;;;16.70;99.90;;;;;;5024908;28;20091;-56
2023/06/04 06:35:01;;;;;;;9.10;3.40;;;17.20;99.90;;;;;;5025532;28;20049;-58
2023/06/04 06:37:27;;;;;;;11.45;3.60;;;17.40;99.90;;;;;;5023336;28;20052;-60
2023/06/04 06:39:52;;;;;;;8.18;2.42;;;17.50;99.90;;;;;;5024677;28;20140;-54
2023/06/04 06:42:19;;;;;;;9.30;2.78;;;17.70;99.90;;;;;;5024388;28;20139;-58
2023/06/04 06:44:45;;;;;;;8.73;2.53;;;17.70;99.90;;;;;;5024221;28;20543;-57
2023/06/04 06:47:13;;;;;;;9.45;2.50;;;18.00;99.90;;;;;;5024114;28;20048;-54
2023/06/04 06:49:39;;;;;;;10.27;2.80;;;18.00;99.90;;;;;;5024450;28;20049;-60
2023/06/04 06:52:05;;;;;;;9.23;2.50;;;18.10;99.90;;;;;;5023912;28;20060;-54
2023/06/04 06:54:31;;;;;;;12.50;3.10;;;18.10;99.90;;;;;;5024081;28;20080;-60
2023/06/04 06:56:57;;;;;;;6.18;2.47;;;18.20;99.90;;;;;;5023972;28;20271;-60
2023/06/04 06:59:23;;;;;;;9.05;2.35;;;18.40;99.90;;;;;;5024723;28;20091;-57
2023/06/04 07:01:48;;;;;;;9.77;3.03;;;18.60;99.90;;;;;;5023399;28;20085;-49
2023/06/04 07:04:14;;;;;;;10.20;2.78;;;18.80;99.90;;;;;;5024346;28;20132;-55
2023/06/04 07:06:40;;;;;;;9.30;2.72;;;19.00;99.90;;;;;;5023219;28;20163;-61
2023/06/04 07:09:05;;;;;;;5.82;2.47;;;18.90;99.90;;;;;;5024240;28;20443;-57
2023/06/04 07:11:31;;;;;;;9.70;2.20;;;19.00;99.90;;;;;;5006157;28;20091;-60
2023/06/04 07:13:57;;;;;;;6.93;2.17;;;19.10;99.90;;;;;;5023746;28;20128;-55
2023/06/04 07:16:22;;;;;;;6.68;2.00;;;19.10;99.90;;;;;;5023919;28;20072;-54
2023/06/04 07:18:51;;;;;;;5.15;1.80;;;19.20;99.90;;;;;;5023557;28;20138;-58
2023/06/04 07:21:19;;;;;;;7.20;1.98;;;19.40;99.00;;;;;;5022906;28;20038;-60
2023/06/04 07:23:47;;;;;;;3.95;1.73;;;19.40;98.00;;;;;;5023687;28;20041;-53
2023/06/04 07:26:12;;;;;;;6.22;1.85;;;19.40;96.60;;;;;;5023551;28;20045;-57
2023/06/04 07:28:38;;;;;;;3.50;1.50;;;19.40;96.30;;;;;;5024166;28;20088;-56
2023/06/04 07:31:03;;;;;;;6.32;1.85;;;19.50;95.70;;;;;;5023983;28;20455;-55
2023/06/04 07:33:29;;;;;;;5.57;1.98;;;19.60;95.50;;;;;;5023561;28;20034;-59
2023/06/04 07:35:55;;;;;;;5.85;2.00;;;19.70;95.20;;;;;;5023572;28;20114;-52
2023/06/04 07:38:20;;;;;;;4.82;1.88;;;19.70;94.80;;;;;;5023055;28;20496;-61
2023/06/04 07:40:47;;;;;;;5.10;1.55;;;19.70;94.90;;;;;;5023452;28;20121;-53
2023/06/04 07:43:13;;;;;;;4.55;1.70;;;19.70;94.90;;;;;;5022952;28;20538;-58
2023/06/04 07:45:38;;;;;;;6.13;1.85;;;19.80;94.90;;;;;;5023814;28;20049;-58
2023/06/04 07:48:04;;;;;;;3.92;1.55;;;19.80;94.80;;;;;;5005710;28;20395;-54
2023/06/04 07:50:30;;;;;;;4.45;1.50;;;19.60;94.60;;;;;;5022692;28;20050;-61
2023/06/04 07:52:55;;;;;;;6.18;1.90;;;19.70;94.70;;;;;;5022493;28;20160;-55
2023/06/04 07:55:22;;;;;;;3.17;1.35;;;19.70;94.80;;;;;;5023492;28;20060;-52
2023/06/04 07:57:47;;;;;;;6.30;1.90;;;19.70;94.40;;;;;;5023175;28;20601;-61
2023/06/04 08:00:14;;;;;;;5.75;1.95;;;19.60;94.40;;;;;;5005083;28;20081;-47
2023/06/04 08:02:40;;;;;;;5.63;1.48;;;19.60;94.70;;;;;;5023253;28;20065;-60
2023/06/04 08:05:05;;;;;;;6.80;1.88;;;19.70;94.70;;;;;;5004837;28;20049;-55
2023/06/04 08:07:31;;;;;;;4.13;2.00;;;19.80;94.70;;;;;;5022102;28;20037;-61
2023/06/04 08:09:56;;;;;;;4.55;1.73;;;19.80;94.60;;;;;;5022333;28;20041;-55
2023/06/04 08:12:22;;;;;;;5.88;2.13;;;19.70;94.60;;;;;;5022870;28;20079;-56
2023/06/04 08:14:50;;;;;;;7.60;2.05;;;19.70;95.10;;;;;;5022354;28;20500;-61
2023/06/04 08:17:15;;;;;;;5.53;2.15;;;19.80;95.10;;;;;;5022683;28;20333;-60
2023/06/04 08:19:41;;;;;;;4.53;1.80;;;19.80;94.80;;;;;;5023474;28;20128;-59
2023/06/04 08:22:09;;;;;;;6.72;1.85;;;20.00;94.70;;;;;;5021482;28;20049;-60
2023/06/04 08:24:34;;;;;;;6.05;1.83;;;20.10;94.90;;;;;;5021752;28;20046;-55
2023/06/04 08:27:00;;;;;;;3.83;1.40;;;20.10;94.70;;;;;;5022677;28;20557;-60
2023/06/04 08:29:25;;;;;;;5.43;1.70;;;20.20;94.50;;;;;;5022216;28;20338;-56
2023/06/04 08:31:51;;;;;;;6.97;1.80;;;20.00;93.70;;;;;;5022507;28;20049;-53
2023/06/04 08:34:17;;;;;;;4.10;1.50;;;20.10;94.00;;;;;;5004915;28;20654;-59
2023/06/04 08:36:42;;;;;;;7.25;1.70;;;20.10;93.80;;;;;;5022178;28;20049;-55
2023/06/04 08:39:09;;;;;;;4.30;1.52;;;20.20;93.60;;;;;;5022057;28;20045;-53
2023/06/04 08:41:42;;;;;;;5.18;1.88;;;20.30;93.60;;;;;;5004167;28;20590;-54
2023/06/04 08:44:09;;;;;;;4.18;1.67;;;20.40;93.50;;;;;;5022373;28;20049;-56
2023/06/04 08:46:39;;;;;;;4.57;1.65;;;20.50;93.60;;;;;;5022219;28;20044;-54
2023/06/04 08:49:06;;;;;;;3.50;1.85;;;20.70;93.00;;;;;;5022632;28;20067;-60
2023/06/04 08:51:36;;;;;;;4.63;1.30;;;20.80;93.10;;;;;;5021603;28;20162;-60
2023/06/04 08:54:07;;;;;;;5.47;1.45;;;20.90;92.40;;;;;;5021808;28;20041;-61
2023/06/04 08:56:34;;;;;;;5.72;1.42;;;20.90;92.80;;;;;;5021920;28;20045;-53
2023/06/04 08:59:07;;;;;;;4.82;1.52;;;21.00;92.50;;;;;;5022033;28;20042;-57
2023/06/04 09:01:34;;;;;;;3.10;1.48;;;21.20;92.40;;;;;;5021625;28;20050;-56
2023/06/04 09:04:03;;;;;;;4.63;1.60;;;21.30;92.20;;;;;;5021769;28;20376;-57
2023/06/04 09:06:31;;;;;;;5.35;1.67;;;21.30;91.80;;;;;;5020555;28;20049;-60
2023/06/04 09:08:58;;;;;;;5.30;1.88;;;21.40;91.90;;;;;;5003720;28;20603;-57
2023/06/04 09:11:28;;;;;;;2.65;1.40;;;21.50;91.60;;;;;;5004361;28;20072;-61
2023/06/04 09:13:55;;;;;;;7.30;1.50;;;21.50;91.10;;;;;;5022486;28;20042;-58
2023/06/04 09:16:21;;;;;;;4.25;1.48;;;21.40;91.40;;;;;;5021183;28;20057;-60
2023/06/04 09:18:47;;;;;;;6.72;1.52;;;21.50;91.60;;;;;;5021963;28;20037;-52
2023/06/04 09:21:13;;;;;;;3.78;1.60;;;21.60;91.30;;;;;;5020303;28;20496;-60
2023/06/04 09:23:46;;;;;;;4.10;1.40;;;21.70;91.00;;;;;;5021257;28;20065;-51
2023/06/04 09:26:12;;;;;;;4.97;1.40;;;21.80;90.20;;;;;;5022008;28;20034;-56
2023/06/04 09:28:42;;;;;;;6.68;1.70;;;21.90;90.20;;;;;;5021751;28;20046;-58
2023/06/04 09:31:17;;;;;;;5.47;1.60;;;21.80;90.40;;;;;;5021331;28;20106;-61
2023/06/04 09:33:48;;;;;;;4.28;1.42;;;21.80;91.20;;;;;;5021882;28;20041;-53
2023/06/04 09:36:14;;;;;;;5.18;1.67;;;21.90;89.10;;;;;;5021647;28;20412;-61
2023/06/04 09:38:40;;;;;;;4.97;1.70;;;22.00;90.50;;;;;;5020985;28;20037;-61
2023/06/04 09:41:13;;;;;;;5.85;1.42;;;22.10;90.70;;;;;;5021584;28;20049;-56
2023/06/04 09:43:39;;;;;;;2.60;1.38;;;22.20;88.50;;;;;;5021883;28;20041;-52
2023/06/04 09:46:13;;;;;;;6.47;1.70;;;22.30;90.60;;;;;;5003600;28;20041;-59
2023/06/04 09:48:40;;;;;;;4.17;1.50;;;22.50;90.20;;;;;;5021724;28;20102;-58
2023/06/04 09:51:13;;;;;;;4.85;1.60;;;22.60;90.40;;;;;;5020412;28;20053;-60
2023/06/04 09:53:39;;;;;;;4.95;1.38;;;22.80;90.30;;;;;;5021270;28;20069;-60
2023/06/04 09:56:06;;;;;;;5.82;1.80;;;22.90;89.90;;;;;;5021369;28;20072;-52
2023/06/04 09:58:32;;;;;;;4.05;1.60;;;22.90;89.80;;;;;;5021224;28;20512;-60
2023/06/04 10:01:00;;;;;;;3.55;1.67;;;23.00;90.00;;;;;;5021163;28;20756;-58
2023/06/04 10:03:32;;;;;;;4.72;1.60;;;23.10;89.80;;;;;;5021228;28;20520;-58
2023/06/04 10:05:59;;;;;;;4.50;1.52;;;23.30;88.90;;;;;;5019604;28;20128;-55
2023/06/04 10:08:26;;;;;;;7.88;2.00;;;23.20;87.70;;;;;;5021936;28;20053;-59
2023/06/04 10:10:57;;;;;;;5.65;1.70;;;22.80;88.30;;;;;;5021260;28;20463;-58
2023/06/04 10:13:26;;;;;;;6.05;1.60;;;22.90;88.20;;;;;;5020314;28;20271;-58
2023/06/04 10:15:52;;;;;;;3.60;1.40;;;22.90;89.40;;;;;;5020881;28;20125;-55
2023/06/04 10:18:19;;;;;;;4.57;1.40;;;23.00;88.90;;;;;;5021820;28;20057;-60
2023/06/04 10:20:45;;;;;;;3.80;1.60;;;22.90;88.10;;;;;;5020162;28;20511;-57
2023/06/04 10:23:12;;;;;;;6.70;1.75;;;23.00;89.30;;;;;;5021116;28;20083;-53
2023/06/04 10:25:37;;;;;;;5.03;1.80;;;23.20;89.50;;;;;;5021111;28;20058;-60
2023/06/04 10:28:04;;;;;;;3.55;1.40;;;23.30;89.30;;;;;;5020948;28;20515;-59
2023/06/04 10:30:30;;;;;;;4.20;1.35;;;23.40;89.20;;;;;;5020931;28;20108;-58
2023/06/04 10:32:59;;;;;;;4.10;1.60;;;23.60;88.40;;;;;;5004751;28;20164;-56
2023/06/04 10:35:35;;;;;;;5.05;1.90;;;23.80;86.70;;;;;;5006427;28;20091;-61
2023/06/04 10:38:13;;;;;;;3.67;1.50;;;23.70;86.20;;;;;;5024661;28;20045;-60
2023/06/04 10:40:39;;;;;;;5.10;1.90;;;23.50;88.20;;;;;;5024799;28;20377;-56
2023/06/04 10:43:09;;;;;;;5.80;1.70;;;23.30;88.60;;;;;;5024416;28;20408;-58
2023/06/04 10:45:35;;;;;;;5.13;1.45;;;23.30;87.40;;;;;;5024437;28;20077;-58
2023/06/04 10:48:14;;;;;;;3.42;1.33;;;23.30;88.30;;;;;;5024802;28;20081;-55
2023/06/04 10:50:51;;;;;;;3.33;1.40;;;23.50;87.50;;;;;;5023377;28;20033;-60
2023/06/04 10:53:21;;;;;;;4.55;1.65;;;23.70;84.00;;;;;;5025005;28;20053;-57
2023/06/04 10:55:48;;;;;;;5.85;1.90;;;23.90;86.50;;;;;;5024247;28;20099;-60
2023/06/04 10:58:14;;;;;;;4.32;1.27;;;24.00;86.80;;;;;;5024353;28;20047;-58
2023/06/04 11:00:48;;;;;;;4.53;1.45;;;24.10;86.60;;;;;;5024229;28;20476;-53
2023/06/04 11:03:14;;;;;;;5.53;1.70;;;24.20;84.70;;;;;;5023540;28;20045;-55
2023/06/04 11:05:45;;;;;;;4.93;1.45;;;24.10;86.50;;;;;;5023358;28;20060;-50
2023/06/04 11:08:13;;;;;;;4.68;1.70;;;24.10;84.80;;;;;;5024569;28;20061;-54
2023/06/04 11:10:45;;;;;;;5.95;1.65;;;24.00;86.10;;;;;;5023538;28;20065;-59
2023/06/04 11:13:11;;;;;;;3.33;1.40;;;24.00;84.80;;;;;;5023863;28;20432;-61
2023/06/04 11:15:44;;;;;;;3.00;1.38;;;24.00;84.90;;;;;;5023843;28;20056;-54
2023/06/04 11:18:18;;;;;;;3.50;1.45;;;24.10;82.50;;;;;;5023874;28;20353;-54
2023/06/04 11:20:46;;;;;;;4.82;1.40;;;24.20;82.00;;;;;;5023273;28;20049;-54
2023/06/04 11:23:13;;;;;;;4.57;1.50;;;24.10;84.60;;;;;;5023958;28;20096;-59
2023/06/04 11:25:39;;;;;;;3.40;1.50;;;24.10;84.30;;;;;;5024010;28;21106;-61
2023/06/04 11:28:05;;;;;;;3.15;1.10;;;24.30;83.90;;;;;;5023488;28;20070;-55
2023/06/04 11:30:30;;;;;;;2.97;1.20;;;24.40;83.40;;;;;;5023922;28;20583;-60
2023/06/04 11:33:06;;;;;;;3.30;1.38;;;24.50;83.30;;;;;;5023122;28;20455;-52
2023/06/04 11:35:40;;;;;;;3.35;1.45;;;24.50;80.70;;;;;;5022793;28;20037;-59
2023/06/04 11:38:05;;;;;;;2.83;1.40;;;24.40;82.90;;;;;;5023554;28;20056;-62
2023/06/04 11:40:31;;;;;;;3.70;1.40;;;24.40;84.20;;;;;;5023044;28;20030;-61
2023/06/04 11:42:57;;;;;;;4.00;1.92;;;24.50;84.00;;;;;;5023713;28;20459;-55
2023/06/04 11:45:23;;;;;;;3.72;1.60;;;24.10;83.80;;;;;;5005043;28;20053;-59
2023/06/04 11:47:56;;;;;;;4.35;1.50;;;24.00;84.90;;;;;;5023019;28;20469;-57
2023/06/04 11:50:23;;;;;;;5.17;1.70;;;24.00;84.70;;;;;;5022699;28;20037;-52
2023/06/04 11:52:51;;;;;;;3.58;1.77;;;23.80;85.80;;;;;;5023505;28;20045;-55
2023/06/04 11:55:17;;;;;;;3.92;1.48;;;23.80;86.60;;;;;;5023482;28;20098;-59
2023/06/04 11:57:43;;;;;;;4.95;1.48;;;23.80;86.40;;;;;;5023227;28;20456;-54
2023/06/04 12:00:10;;;;;;;4.80;1.40;;;24.00;86.70;;;;;;5023108;28;20045;-61
2023/06/04 12:02:54;;;;;;;4.18;1.60;;;24.00;85.70;;;;;;5022405;28;20409;-59
2023/06/04 12:05:25;;;;;;;3.13;1.30;;;24.10;84.90;;;;;;5022428;28;20060;-58
2023/06/04 12:07:51;;;;;;;3.90;1.75;;;24.00;85.60;;;;;;5022700;28;20087;-56
2023/06/04 12:10:18;;;;;;;3.42;1.60;;;23.90;86.20;;;;;;5005544;28;20451;-61
2023/06/04 12:12:44;;;;;;;4.80;1.75;;;23.70;86.80;;;;;;5005212;28;20338;-61
2023/06/04 12:15:10;;;;;;;5.50;1.77;;;23.80;85.70;;;;;;5010798;28;20373;-58
2023/06/04 12:17:37;;;;;;;4.43;1.30;;;23.70;85.70;;;;;;5022900;28;20064;-62
2023/06/04 12:20:05;;;;;;;4.85;1.77;;;23.80;85.70;;;;;;5022693;28;20033;-55
2023/06/04 12:22:31;;;;;;;6.53;2.03;;;24.00;85.30;;;;;;5003392;28;20128;-55
2023/06/04 12:24:58;;;;;;;2.72;1.30;;;23.90;86.50;;;;;;5022969;28;20116;-57
2023/06/04 12:27:28;;;;;;;4.43;2.00;;;23.80;87.30;;;;;;5022821;28;20041;-57
2023/06/04 12:30:02;;;;;;;4.18;1.73;;;24.00;87.00;;;;;;5004623;28;20045;-55
2023/06/04 12:32:28;;;;;;;8.63;2.17;;;24.10;87.20;;;;;;4996682;28;20128;-57
2023/06/04 12:34:54;;;;;;;5.90;1.50;;;24.20;86.60;;;;;;5022900;28;20124;-60
2023/06/04 12:37:21;;;;;;;5.22;2.10;;;24.40;86.80;;;;;;5021166;28;20042;-59
2023/06/04 12:39:46;;;;;;;5.38;1.70;;;24.20;88.20;;;;;;5022317;28;20084;-55